sensor_id;sensor_type;location;lat;lon;timestamp;temperature;humidity
19580;DHT22;9936;51.040;13.918;2023-02-01T00:03:02;3.80;99.90
19580;DHT22;9936;51.040;13.918;2023-02-01T00:06:48;3.90;99.90
19580;DHT22;9936;51.040;13.918;2023-02-01T00:10:33;3.90;99.90
19580;DHT22;9936;51.040;13.918;2023-02-01T00:14:19;3.90;99.90
19580;DHT22;9936;51.040;13.918;2023-02-01T00:18:05;3.90;99.90
19580;DHT22;9936;51.040;13.918;2023-02-01T00:21:50;3.80;99.90
19580;DHT22;9936;51.040;13.918;2023-02-01T00:25:36;3.80;99.90
19580;DHT22;9936;51.040;13.918;2023-02-01T00:29:22;3.80;99.90
19580;DHT22;9936;51.040;13.918;2023-02-01T00:33:07;3.90;99.90
19580;DHT22;9936;51.040;13.918;2023-02-01T00:36:53;3.80;99.90
19580;DHT22;9936;51.040;13.918;2023-02-01T00:40:38;3.80;99.90
19580;DHT22;9936;51.040;13.918;2023-02-01T00:44:24;3.80;99.90
19580;DHT22;9936;51.040;13.918;2023-02-01T00:48:09;3.90;99.90
19580;DHT22;9936;51.040;13.918;2023-02-01T00:51:55;3.90;99.90
19580;DHT22;9936;51.040;13.918;2023-02-01T00:55:44;3.90;99.90
19580;DHT22;9936;51.040;13.918;2023-02-01T00:59:30;3.90;99.90
19580;DHT22;9936;51.040;13.918;2023-02-01T01:03:16;3.90;99.90
19580;DHT22;9936;51.040;13.918;2023-02-01T01:07:04;3.90;99.90
19580;DHT22;9936;51.040;13.918;2023-02-01T01:10:50;4.00;99.90
19580;DHT22;9936;51.040;13.918;2023-02-01T01:14:35;3.90;99.90
19580;DHT22;9936;51.040;13.918;2023-02-01T01:18:21;4.00;99.90
19580;DHT22;9936;51.040;13.918;2023-02-01T01:22:07;3.90;99.90
19580;DHT22;9936;51.040;13.918;2023-02-01T01:25:52;3.90;99.90
19580;DHT22;9936;51.040;13.918;2023-02-01T01:29:38;4.00;99.90
19580;DHT22;9936;51.040;13.918;2023-02-01T01:33:24;3.90;99.90
19580;DHT22;9936;51.040;13.918;2023-02-01T01:37:09;3.90;99.90
19580;DHT22;9936;51.040;13.918;2023-02-01T01:40:55;3.90;99.90
19580;DHT22;9936;51.040;13.918;2023-02-01T01:44:59;3.80;99.90
19580;DHT22;9936;51.040;13.918;2023-02-01T01:48:46;3.90;99.90
19580;DHT22;9936;51.040;13.918;2023-02-01T01:52:34;3.90;99.90
19580;DHT22;9936;51.040;13.918;2023-02-01T01:56:20;3.90;99.90
19580;DHT22;9936;51.040;13.918;2023-02-01T02:00:14;3.90;99.90
19580;DHT22;9936;51.040;13.918;2023-02-01T02:04:01;3.90;99.90
19580;DHT22;9936;51.040;13.918;2023-02-01T02:07:49;3.90;99.90
19580;DHT22;9936;51.040;13.918;2023-02-01T02:11:36;3.90;99.90
19580;DHT22;9936;51.040;13.918;2023-02-01T02:15:21;3.90;99.90
19580;DHT22;9936;51.040;13.918;2023-02-01T02:32:32;3.90;99.90
19580;DHT22;9936;51.040;13.918;2023-02-01T02:40:32;3.90;99.90
19580;DHT22;9936;51.040;13.918;2023-02-01T02:44:30;3.90;99.90
19580;DHT22;9936;51.040;13.918;2023-02-01T02:48:46;3.90;99.90
19580;DHT22;9936;51.040;13.918;2023-02-01T02:52:34;3.80;99.90
19580;DHT22;9936;51.040;13.918;2023-02-01T02:56:40;3.80;99.90
19580;DHT22;9936;51.040;13.918;2023-02-01T03:00:45;3.90;99.90
19580;DHT22;9936;51.040;13.918;2023-02-01T03:04:54;3.80;99.90
19580;DHT22;9936;51.040;13.918;2023-02-01T03:08:41;3.80;99.90
19580;DHT22;9936;51.040;13.918;2023-02-01T03:12:35;3.80;99.90
19580;DHT22;9936;51.040;13.918;2023-02-01T03:16:49;3.80;99.90
19580;DHT22;9936;51.040;13.918;2023-02-01T03:20:38;3.80;99.90
19580;DHT22;9936;51.040;13.918;2023-02-01T03:24:40;3.80;99.90
19580;DHT22;9936;51.040;13.918;2023-02-01T03:28:29;3.80;99.90
19580;DHT22;9936;51.040;13.918;2023-02-01T03:32:17;3.80;99.90
19580;DHT22;9936;51.040;13.918;2023-02-01T03:40:06;3.80;99.90
19580;DHT22;9936;51.040;13.918;2023-02-01T03:43:55;3.80;99.90
19580;DHT22;9936;51.040;13.918;2023-02-01T03:47:47;3.70;99.90
19580;DHT22;9936;51.040;13.918;2023-02-01T03:51:36;3.80;99.90
19580;DHT22;9936;51.040;13.918;2023-02-01T03:55:25;3.80;99.90
19580;DHT22;9936;51.040;13.918;2023-02-01T03:59:11;3.70;99.90
19580;DHT22;9936;51.040;13.918;2023-02-01T04:02:57;3.80;99.90
19580;DHT22;9936;51.040;13.918;2023-02-01T04:06:43;3.90;99.90
19580;DHT22;9936;51.040;13.918;2023-02-01T04:10:28;3.90;99.90
19580;DHT22;9936;51.040;13.918;2023-02-01T04:14:14;3.80;99.90
19580;DHT22;9936;51.040;13.918;2023-02-01T04:18:00;3.80;99.90
19580;DHT22;9936;51.040;13.918;2023-02-01T04:21:45;3.80;99.90
19580;DHT22;9936;51.040;13.918;2023-02-01T04:25:31;3.80;99.90
19580;DHT22;9936;51.040;13.918;2023-02-01T04:29:17;3.80;99.90
19580;DHT22;9936;51.040;13.918;2023-02-01T04:33:02;3.80;99.90
19580;DHT22;9936;51.040;13.918;2023-02-01T04:36:51;3.80;99.90
19580;DHT22;9936;51.040;13.918;2023-02-01T04:40:37;3.80;99.90
19580;DHT22;9936;51.040;13.918;2023-02-01T04:44:23;3.90;99.90
19580;DHT22;9936;51.040;13.918;2023-02-01T04:48:08;3.80;99.90
19580;DHT22;9936;51.040;13.918;2023-02-01T04:51:54;3.80;99.90
19580;DHT22;9936;51.040;13.918;2023-02-01T04:55:40;3.80;99.90
19580;DHT22;9936;51.040;13.918;2023-02-01T04:59:26;3.80;99.90
19580;DHT22;9936;51.040;13.918;2023-02-01T05:03:11;3.80;99.90
19580;DHT22;9936;51.040;13.918;2023-02-01T05:06:57;3.80;99.90
19580;DHT22;9936;51.040;13.918;2023-02-01T05:10:44;3.80;99.90
19580;DHT22;9936;51.040;13.918;2023-02-01T05:14:30;3.90;99.90
19580;DHT22;9936;51.040;13.918;2023-02-01T05:18:16;3.80;99.90
19580;DHT22;9936;51.040;13.918;2023-02-01T05:22:01;3.90;99.90
19580;DHT22;9936;51.040;13.918;2023-02-01T05:25:47;3.90;99.90
19580;DHT22;9936;51.040;13.918;2023-02-01T05:29:33;3.90;99.90
19580;DHT22;9936;51.040;13.918;2023-02-01T05:33:18;3.80;99.90
19580;DHT22;9936;51.040;13.918;2023-02-01T05:37:04;3.80;99.90
19580;DHT22;9936;51.040;13.918;2023-02-01T05:40:49;3.80;99.90
19580;DHT22;9936;51.040;13.918;2023-02-01T05:57:02;3.90;99.90
19580;DHT22;9936;51.040;13.918;2023-02-01T06:00:48;3.80;99.90
19580;DHT22;9936;51.040;13.918;2023-02-01T06:04:34;3.90;99.90
19580;DHT22;9936;51.040;13.918;2023-02-01T06:08:19;3.80;99.90
19580;DHT22;9936;51.040;13.918;2023-02-01T06:12:05;3.80;99.90
19580;DHT22;9936;51.040;13.918;2023-02-01T06:15:51;3.80;99.90
19580;DHT22;9936;51.040;13.918;2023-02-01T06:19:37;3.80;99.90
19580;DHT22;9936;51.040;13.918;2023-02-01T06:23:23;3.80;99.90
19580;DHT22;9936;51.040;13.918;2023-02-01T06:27:09;3.80;99.90
19580;DHT22;9936;51.040;13.918;2023-02-01T06:30:55;3.80;99.90
19580;DHT22;9936;51.040;13.918;2023-02-01T06:34:40;3.90;99.90
19580;DHT22;9936;51.040;13.918;2023-02-01T06:38:26;3.90;99.90
19580;DHT22;9936;51.040;13.918;2023-02-01T06:42:12;3.80;99.90
19580;DHT22;9936;51.040;13.918;2023-02-01T06:46:03;3.80;99.90
19580;DHT22;9936;51.040;13.918;2023-02-01T06:49:49;3.80;99.90
19580;DHT22;9936;51.040;13.918;2023-02-01T06:53:35;3.80;99.90
19580;DHT22;9936;51.040;13.918;2023-02-01T06:57:20;3.80;99.90
19580;DHT22;9936;51.040;13.918;2023-02-01T07:01:07;3.80;99.90
19580;DHT22;9936;51.040;13.918;2023-02-01T07:04:53;3.80;99.90
19580;DHT22;9936;51.040;13.918;2023-02-01T07:08:39;3.70;99.90
19580;DHT22;9936;51.040;13.918;2023-02-01T07:12:24;3.70;99.90
19580;DHT22;9936;51.040;13.918;2023-02-01T07:16:13;3.70;99.90
19580;DHT22;9936;51.040;13.918;2023-02-01T07:19:58;3.80;99.90
19580;DHT22;9936;51.040;13.918;2023-02-01T07:23:45;3.80;99.90
19580;DHT22;9936;51.040;13.918;2023-02-01T07:27:33;3.80;99.90
19580;DHT22;9936;51.040;13.918;2023-02-01T07:31:19;3.70;99.90
19580;DHT22;9936;51.040;13.918;2023-02-01T07:35:07;3.70;99.90
19580;DHT22;9936;51.040;13.918;2023-02-01T07:38:52;3.60;99.90
19580;DHT22;9936;51.040;13.918;2023-02-01T07:42:38;3.70;99.90
19580;DHT22;9936;51.040;13.918;2023-02-01T07:46:24;3.50;99.90
19580;DHT22;9936;51.040;13.918;2023-02-01T07:50:09;3.30;99.90
19580;DHT22;9936;51.040;13.918;2023-02-01T07:53:55;3.30;99.90
19580;DHT22;9936;51.040;13.918;2023-02-01T07:57:41;3.30;99.90
19580;DHT22;9936;51.040;13.918;2023-02-01T08:01:28;3.30;99.90
19580;DHT22;9936;51.040;13.918;2023-02-01T08:05:14;3.20;99.90
19580;DHT22;9936;51.040;13.918;2023-02-01T08:09:00;3.30;99.90
19580;DHT22;9936;51.040;13.918;2023-02-01T08:12:46;3.30;99.90
19580;DHT22;9936;51.040;13.918;2023-02-01T08:16:36;3.30;99.90
19580;DHT22;9936;51.040;13.918;2023-02-01T08:20:24;3.30;99.90
19580;DHT22;9936;51.040;13.918;2023-02-01T08:24:11;3.30;99.90
19580;DHT22;9936;51.040;13.918;2023-02-01T08:27:56;3.40;99.90
19580;DHT22;9936;51.040;13.918;2023-02-01T08:31:42;3.40;99.90
19580;DHT22;9936;51.040;13.918;2023-02-01T08:35:28;3.40;99.90
19580;DHT22;9936;51.040;13.918;2023-02-01T08:39:14;3.40;99.90
19580;DHT22;9936;51.040;13.918;2023-02-01T08:42:59;3.40;99.90
19580;DHT22;9936;51.040;13.918;2023-02-01T08:46:46;3.30;99.90
19580;DHT22;9936;51.040;13.918;2023-02-01T08:50:31;3.30;99.90
19580;DHT22;9936;51.040;13.918;2023-02-01T08:54:17;3.40;99.90
19580;DHT22;9936;51.040;13.918;2023-02-01T08:58:03;3.40;99.90
19580;DHT22;9936;51.040;13.918;2023-02-01T09:01:48;3.40;99.90
19580;DHT22;9936;51.040;13.918;2023-02-01T09:05:34;3.40;99.90
19580;DHT22;9936;51.040;13.918;2023-02-01T09:09:19;3.60;99.90
19580;DHT22;9936;51.040;13.918;2023-02-01T09:13:05;3.60;99.90
19580;DHT22;9936;51.040;13.918;2023-02-01T09:16:51;3.70;99.90
19580;DHT22;9936;51.040;13.918;2023-02-01T09:20:37;3.80;99.90
19580;DHT22;9936;51.040;13.918;2023-02-01T09:24:22;3.80;99.90
19580;DHT22;9936;51.040;13.918;2023-02-01T09:28:08;3.90;99.90
19580;DHT22;9936;51.040;13.918;2023-02-01T09:31:54;3.90;99.90
19580;DHT22;9936;51.040;13.918;2023-02-01T09:35:40;3.90;99.90
19580;DHT22;9936;51.040;13.918;2023-02-01T09:39:25;3.90;99.90
19580;DHT22;9936;51.040;13.918;2023-02-01T09:43:46;3.90;99.90
19580;DHT22;9936;51.040;13.918;2023-02-01T09:47:35;3.80;99.90
19580;DHT22;9936;51.040;13.918;2023-02-01T09:51:35;3.70;99.90
19580;DHT22;9936;51.040;13.918;2023-02-01T09:55:25;3.60;99.90
19580;DHT22;9936;51.040;13.918;2023-02-01T09:59:44;3.60;99.90
19580;DHT22;9936;51.040;13.918;2023-02-01T10:03:35;3.50;99.90
19580;DHT22;9936;51.040;13.918;2023-02-01T10:07:49;3.40;99.90
19580;DHT22;9936;51.040;13.918;2023-02-01T10:16:12;3.00;99.90
19580;DHT22;9936;51.040;13.918;2023-02-01T10:27:56;2.70;99.90
19580;DHT22;9936;51.040;13.918;2023-02-01T10:31:42;2.70;99.90
19580;DHT22;9936;51.040;13.918;2023-02-01T10:35:31;2.70;99.90
19580;DHT22;9936;51.040;13.918;2023-02-01T10:39:19;2.70;99.90
19580;DHT22;9936;51.040;13.918;2023-02-01T10:43:05;2.70;99.90
19580;DHT22;9936;51.040;13.918;2023-02-01T10:46:50;2.70;99.90
19580;DHT22;9936;51.040;13.918;2023-02-01T10:54:40;2.80;99.90
19580;DHT22;9936;51.040;13.918;2023-02-01T10:58:29;2.90;99.90
19580;DHT22;9936;51.040;13.918;2023-02-01T11:10:06;3.00;99.90
19580;DHT22;9936;51.040;13.918;2023-02-01T11:18:18;3.20;99.90
19580;DHT22;9936;51.040;13.918;2023-02-01T11:22:04;3.30;99.90
19580;DHT22;9936;51.040;13.918;2023-02-01T11:25:54;3.40;99.90
19580;DHT22;9936;51.040;13.918;2023-02-01T11:29:43;3.40;99.90
19580;DHT22;9936;51.040;13.918;2023-02-01T11:33:32;3.50;99.90
19580;DHT22;9936;51.040;13.918;2023-02-01T11:37:43;3.60;99.90
19580;DHT22;9936;51.040;13.918;2023-02-01T11:41:30;3.60;99.90
19580;DHT22;9936;51.040;13.918;2023-02-01T11:45:33;3.80;99.90
19580;DHT22;9936;51.040;13.918;2023-02-01T11:49:23;3.70;99.90
19580;DHT22;9936;51.040;13.918;2023-02-01T11:57:33;3.80;99.90
19580;DHT22;9936;51.040;13.918;2023-02-01T12:05:59;3.80;99.90
19580;DHT22;9936;51.040;13.918;2023-02-01T12:09:59;3.90;99.90
19580;DHT22;9936;51.040;13.918;2023-02-01T12:14:17;3.90;99.90
19580;DHT22;9936;51.040;13.918;2023-02-01T12:18:27;3.80;99.90
19580;DHT22;9936;51.040;13.918;2023-02-01T12:22:42;3.90;99.90
19580;DHT22;9936;51.040;13.918;2023-02-01T12:34:59;3.90;99.90
19580;DHT22;9936;51.040;13.918;2023-02-01T12:39:02;4.00;99.90
19580;DHT22;9936;51.040;13.918;2023-02-01T12:51:06;4.10;99.90
19580;DHT22;9936;51.040;13.918;2023-02-01T12:58:49;4.10;99.90
19580;DHT22;9936;51.040;13.918;2023-02-01T13:06:45;4.20;99.90
19580;DHT22;9936;51.040;13.918;2023-02-01T13:10:40;4.20;99.90
19580;DHT22;9936;51.040;13.918;2023-02-01T13:18:21;4.30;99.90
19580;DHT22;9936;51.040;13.918;2023-02-01T13:26:06;4.30;99.90
19580;DHT22;9936;51.040;13.918;2023-02-01T13:29:56;4.30;99.90
19580;DHT22;9936;51.040;13.918;2023-02-01T13:46:07;4.40;99.90
19580;DHT22;9936;51.040;13.918;2023-02-01T13:50:00;4.40;99.90
19580;DHT22;9936;51.040;13.918;2023-02-01T13:53:48;4.50;99.90
19580;DHT22;9936;51.040;13.918;2023-02-01T13:57:37;4.50;99.90
19580;DHT22;9936;51.040;13.918;2023-02-01T14:05:10;4.50;99.90
19580;DHT22;9936;51.040;13.918;2023-02-01T14:09:15;4.50;99.90
19580;DHT22;9936;51.040;13.918;2023-02-01T14:13:12;4.60;99.90
19580;DHT22;9936;51.040;13.918;2023-02-01T14:17:31;4.60;99.90
19580;DHT22;9936;51.040;13.918;2023-02-01T14:21:24;4.60;99.90
19580;DHT22;9936;51.040;13.918;2023-02-01T14:25:17;4.60;99.90
19580;DHT22;9936;51.040;13.918;2023-02-01T14:29:20;4.60;99.90
19580;DHT22;9936;51.040;13.918;2023-02-01T14:33:21;4.60;99.90
19580;DHT22;9936;51.040;13.918;2023-02-01T14:37:10;4.70;99.90
19580;DHT22;9936;51.040;13.918;2023-02-01T14:41:31;4.70;99.90
19580;DHT22;9936;51.040;13.918;2023-02-01T14:49:05;5.10;99.90
19580;DHT22;9936;51.040;13.918;2023-02-01T14:56:54;5.10;99.90
19580;DHT22;9936;51.040;13.918;2023-02-01T15:00:53;5.20;99.90
19580;DHT22;9936;51.040;13.918;2023-02-01T15:04:42;5.10;99.90
19580;DHT22;9936;51.040;13.918;2023-02-01T15:08:32;5.10;99.90
19580;DHT22;9936;51.040;13.918;2023-02-01T15:12:25;5.10;99.90
19580;DHT22;9936;51.040;13.918;2023-02-01T15:16:15;5.00;99.90
19580;DHT22;9936;51.040;13.918;2023-02-01T15:20:16;5.00;99.90
19580;DHT22;9936;51.040;13.918;2023-02-01T15:24:14;5.00;99.90
19580;DHT22;9936;51.040;13.918;2023-02-01T15:28:02;5.00;99.90
19580;DHT22;9936;51.040;13.918;2023-02-01T15:31:50;5.00;99.90
19580;DHT22;9936;51.040;13.918;2023-02-01T15:40:26;4.90;99.90
19580;DHT22;9936;51.040;13.918;2023-02-01T15:48:21;4.60;99.90
19580;DHT22;9936;51.040;13.918;2023-02-01T15:52:27;4.60;99.90
19580;DHT22;9936;51.040;13.918;2023-02-01T15:56:21;4.60;99.90
19580;DHT22;9936;51.040;13.918;2023-02-01T16:08:09;4.60;99.90
19580;DHT22;9936;51.040;13.918;2023-02-01T16:12:00;4.60;99.90
19580;DHT22;9936;51.040;13.918;2023-02-01T16:15:47;4.50;99.90
19580;DHT22;9936;51.040;13.918;2023-02-01T16:19:33;4.50;99.90
19580;DHT22;9936;51.040;13.918;2023-02-01T16:23:18;4.50;99.90
19580;DHT22;9936;51.040;13.918;2023-02-01T16:27:05;4.30;99.90
19580;DHT22;9936;51.040;13.918;2023-02-01T16:30:52;4.10;99.90
19580;DHT22;9936;51.040;13.918;2023-02-01T16:34:38;4.10;99.90
19580;DHT22;9936;51.040;13.918;2023-02-01T16:38:23;3.90;99.90
19580;DHT22;9936;51.040;13.918;2023-02-01T16:42:13;3.90;99.90
19580;DHT22;9936;51.040;13.918;2023-02-01T16:46:00;3.80;99.90
19580;DHT22;9936;51.040;13.918;2023-02-01T16:49:50;3.70;99.90
19580;DHT22;9936;51.040;13.918;2023-02-01T16:53:36;3.70;99.90
19580;DHT22;9936;51.040;13.918;2023-02-01T16:57:22;3.70;99.90
19580;DHT22;9936;51.040;13.918;2023-02-01T17:01:10;3.70;99.90
19580;DHT22;9936;51.040;13.918;2023-02-01T17:04:56;3.60;99.90
19580;DHT22;9936;51.040;13.918;2023-02-01T17:08:45;3.60;99.90
19580;DHT22;9936;51.040;13.918;2023-02-01T17:12:32;3.60;99.90
19580;DHT22;9936;51.040;13.918;2023-02-01T17:20:04;3.40;99.90
19580;DHT22;9936;51.040;13.918;2023-02-01T17:23:51;3.00;99.90
19580;DHT22;9936;51.040;13.918;2023-02-01T17:27:40;2.80;99.90
19580;DHT22;9936;51.040;13.918;2023-02-01T17:31:27;2.60;99.90
19580;DHT22;9936;51.040;13.918;2023-02-01T17:35:20;2.50;99.90
19580;DHT22;9936;51.040;13.918;2023-02-01T17:39:07;2.50;99.90
19580;DHT22;9936;51.040;13.918;2023-02-01T17:42:53;2.60;99.90
19580;DHT22;9936;51.040;13.918;2023-02-01T17:46:42;2.70;99.90
19580;DHT22;9936;51.040;13.918;2023-02-01T17:50:29;2.50;99.90
19580;DHT22;9936;51.040;13.918;2023-02-01T17:54:16;2.50;99.90
19580;DHT22;9936;51.040;13.918;2023-02-01T17:58:04;2.60;99.90
19580;DHT22;9936;51.040;13.918;2023-02-01T18:01:50;2.50;99.90
19580;DHT22;9936;51.040;13.918;2023-02-01T18:05:41;2.50;99.90
19580;DHT22;9936;51.040;13.918;2023-02-01T18:09:28;2.60;99.90
19580;DHT22;9936;51.040;13.918;2023-02-01T18:13:14;2.60;99.90
19580;DHT22;9936;51.040;13.918;2023-02-01T18:17:00;2.70;99.90
19580;DHT22;9936;51.040;13.918;2023-02-01T18:24:33;2.60;99.90
19580;DHT22;9936;51.040;13.918;2023-02-01T18:28:21;2.70;99.90
19580;DHT22;9936;51.040;13.918;2023-02-01T18:32:08;2.70;99.90
19580;DHT22;9936;51.040;13.918;2023-02-01T18:35:55;2.60;99.90
19580;DHT22;9936;51.040;13.918;2023-02-01T18:39:40;2.70;99.90
19580;DHT22;9936;51.040;13.918;2023-02-01T18:43:26;2.70;99.90
19580;DHT22;9936;51.040;13.918;2023-02-01T18:47:14;2.70;99.90
19580;DHT22;9936;51.040;13.918;2023-02-01T18:51:00;2.70;99.90
19580;DHT22;9936;51.040;13.918;2023-02-01T18:54:46;2.70;99.90
19580;DHT22;9936;51.040;13.918;2023-02-01T18:58:32;2.70;99.90
19580;DHT22;9936;51.040;13.918;2023-02-01T19:02:18;2.80;99.90
19580;DHT22;9936;51.040;13.918;2023-02-01T19:06:12;2.70;99.90
19580;DHT22;9936;51.040;13.918;2023-02-01T19:09:57;2.70;99.90
19580;DHT22;9936;51.040;13.918;2023-02-01T19:13:48;2.80;99.90
19580;DHT22;9936;51.040;13.918;2023-02-01T19:17:38;2.80;99.90
19580;DHT22;9936;51.040;13.918;2023-02-01T19:21:25;2.70;99.90
19580;DHT22;9936;51.040;13.918;2023-02-01T19:25:18;2.70;99.90
19580;DHT22;9936;51.040;13.918;2023-02-01T20:47:31;2.70;99.90
19580;DHT22;9936;51.040;13.918;2023-02-01T20:51:18;2.70;99.90
19580;DHT22;9936;51.040;13.918;2023-02-01T20:55:04;2.70;99.90
19580;DHT22;9936;51.040;13.918;2023-02-01T20:58:50;2.60;99.90
19580;DHT22;9936;51.040;13.918;2023-02-01T21:02:36;2.60;99.90
19580;DHT22;9936;51.040;13.918;2023-02-01T21:06:22;2.60;99.90
19580;DHT22;9936;51.040;13.918;2023-02-01T21:10:09;2.50;99.90
19580;DHT22;9936;51.040;13.918;2023-02-01T21:13:54;2.50;99.90
19580;DHT22;9936;51.040;13.918;2023-02-01T21:17:42;2.50;99.90
19580;DHT22;9936;51.040;13.918;2023-02-01T21:21:28;2.50;99.90
19580;DHT22;9936;51.040;13.918;2023-02-01T21:25:14;2.50;99.90
19580;DHT22;9936;51.040;13.918;2023-02-01T21:28:59;2.50;99.90
19580;DHT22;9936;51.040;13.918;2023-02-01T21:32:45;2.50;99.90
19580;DHT22;9936;51.040;13.918;2023-02-01T21:36:34;2.50;99.90
19580;DHT22;9936;51.040;13.918;2023-02-01T21:40:20;2.60;99.90
19580;DHT22;9936;51.040;13.918;2023-02-01T21:44:07;2.60;99.90
19580;DHT22;9936;51.040;13.918;2023-02-01T21:47:53;2.60;99.90
19580;DHT22;9936;51.040;13.918;2023-02-01T21:51:40;2.60;99.90
19580;DHT22;9936;51.040;13.918;2023-02-01T21:55:26;2.50;99.90
19580;DHT22;9936;51.040;13.918;2023-02-01T21:59:15;2.60;99.90
19580;DHT22;9936;51.040;13.918;2023-02-01T22:03:00;2.60;99.90
19580;DHT22;9936;51.040;13.918;2023-02-01T22:06:46;2.60;99.90
19580;DHT22;9936;51.040;13.918;2023-02-01T22:10:32;2.80;99.90
19580;DHT22;9936;51.040;13.918;2023-02-01T22:14:18;2.60;99.90
19580;DHT22;9936;51.040;13.918;2023-02-01T22:18:05;2.60;99.90
19580;DHT22;9936;51.040;13.918;2023-02-01T22:21:51;2.60;99.90
19580;DHT22;9936;51.040;13.918;2023-02-01T22:25:37;2.70;99.90
19580;DHT22;9936;51.040;13.918;2023-02-01T22:29:23;2.70;99.90
19580;DHT22;9936;51.040;13.918;2023-02-01T22:33:11;2.70;99.90
19580;DHT22;9936;51.040;13.918;2023-02-01T22:36:57;2.70;99.90
19580;DHT22;9936;51.040;13.918;2023-02-01T22:40:43;2.70;99.90
19580;DHT22;9936;51.040;13.918;2023-02-01T22:44:29;2.60;99.90
19580;DHT22;9936;51.040;13.918;2023-02-01T22:48:14;2.80;99.90
19580;DHT22;9936;51.040;13.918;2023-02-01T22:52:00;2.70;99.90
19580;DHT22;9936;51.040;13.918;2023-02-01T22:55:46;2.80;99.90
19580;DHT22;9936;51.040;13.918;2023-02-01T22:59:32;3.10;99.90
19580;DHT22;9936;51.040;13.918;2023-02-01T23:03:17;2.60;99.90
19580;DHT22;9936;51.040;13.918;2023-02-01T23:07:03;2.70;99.90
19580;DHT22;9936;51.040;13.918;2023-02-01T23:10:51;3.00;99.90
19580;DHT22;9936;51.040;13.918;2023-02-01T23:14:41;2.70;99.90
19580;DHT22;9936;51.040;13.918;2023-02-01T23:18:49;2.80;99.90
19580;DHT22;9936;51.040;13.918;2023-02-01T23:22:34;2.80;99.90
19580;DHT22;9936;51.040;13.918;2023-02-01T23:26:21;2.90;99.90
19580;DHT22;9936;51.040;13.918;2023-02-01T23:30:09;2.80;99.90
19580;DHT22;9936;51.040;13.918;2023-02-01T23:33:57;2.80;99.90
19580;DHT22;9936;51.040;13.918;2023-02-01T23:37:43;2.80;99.90
19580;DHT22;9936;51.040;13.918;2023-02-01T23:41:29;2.80;99.90
19580;DHT22;9936;51.040;13.918;2023-02-01T23:45:16;2.80;99.90
19580;DHT22;9936;51.040;13.918;2023-02-01T23:49:04;2.80;99.90
19580;DHT22;9936;51.040;13.918;2023-02-01T23:52:49;2.80;99.90
19580;DHT22;9936;51.040;13.918;2023-02-01T23:56:38;2.80;99.90
